Avon, Pennsylvania
Current Conditions -  °F | °C
As of 7:58 PM on Monday 22 Dec 2014 (Local Time) from KMUI Reporting Station
Drizzle Drizzle  
Wind Chill: 37°   Ceiling: 3400
Heat Index: 37°   Visibility: 7mi
Dew Point: 33°   Wind: 2mph
Humidity: 88%   Direction: 50°NE
Pressure: 30.19"   Gusts: NA
Location:  40.2957°N, 76.4189°W
Report Text: KMUI 230058Z AUTO 05002KT 7SM -DZ OVC034 03/01 A3019 RMK AO2 UPB0025E0026RAE2357DZB2357E0001B0026 SLP232 P0000 T00250007
Loading
Personal Weather Stations






























Interactive Weather Map New forecast layout! Learn more

10-Day Weather Forecast

Advertisements
Track Severe Weather on mobile